sensor_id;sensor_type;location;lat;lon;timestamp;P1;durP1;ratioP1;P2;durP2;ratioP2
21239;SDS011;10778;48.962;9.018;2023-09-08T00:02:03;7.60;;;5.57;;
21239;SDS011;10778;48.962;9.018;2023-09-08T00:04:30;9.40;;;5.80;;
21239;SDS011;10778;48.962;9.018;2023-09-08T00:06:56;7.45;;;5.82;;
21239;SDS011;10778;48.962;9.018;2023-09-08T00:09:22;8.18;;;5.63;;
21239;SDS011;10778;48.962;9.018;2023-09-08T00:11:48;7.18;;;5.97;;
21239;SDS011;10778;48.962;9.018;2023-09-08T00:14:14;8.45;;;5.70;;
21239;SDS011;10778;48.962;9.018;2023-09-08T00:16:40;7.10;;;5.82;;
21239;SDS011;10778;48.962;9.018;2023-09-08T00:19:09;7.65;;;5.85;;
21239;SDS011;10778;48.962;9.018;2023-09-08T00:21:36;7.15;;;5.43;;
21239;SDS011;10778;48.962;9.018;2023-09-08T00:24:02;7.43;;;5.47;;
21239;SDS011;10778;48.962;9.018;2023-09-08T00:26:29;7.25;;;5.68;;
21239;SDS011;10778;48.962;9.018;2023-09-08T00:28:56;7.22;;;5.50;;
21239;SDS011;10778;48.962;9.018;2023-09-08T00:31:22;8.38;;;6.25;;
21239;SDS011;10778;48.962;9.018;2023-09-08T00:33:48;7.38;;;6.00;;
21239;SDS011;10778;48.962;9.018;2023-09-08T00:36:14;8.15;;;6.15;;
21239;SDS011;10778;48.962;9.018;2023-09-08T00:38:40;7.75;;;5.88;;
21239;SDS011;10778;48.962;9.018;2023-09-08T00:41:07;8.00;;;5.53;;
21239;SDS011;10778;48.962;9.018;2023-09-08T00:43:33;8.60;;;5.40;;
21239;SDS011;10778;48.962;9.018;2023-09-08T00:45:59;5.97;;;5.38;;
21239;SDS011;10778;48.962;9.018;2023-09-08T00:48:28;7.18;;;5.60;;
21239;SDS011;10778;48.962;9.018;2023-09-08T00:50:55;7.15;;;5.50;;
21239;SDS011;10778;48.962;9.018;2023-09-08T00:53:22;8.75;;;5.72;;
21239;SDS011;10778;48.962;9.018;2023-09-08T00:55:50;7.70;;;5.85;;
21239;SDS011;10778;48.962;9.018;2023-09-08T00:58:17;8.43;;;6.03;;
21239;SDS011;10778;48.962;9.018;2023-09-08T01:00:43;8.30;;;6.28;;
21239;SDS011;10778;48.962;9.018;2023-09-08T01:03:13;11.13;;;5.85;;
21239;SDS011;10778;48.962;9.018;2023-09-08T01:05:39;9.95;;;6.25;;
21239;SDS011;10778;48.962;9.018;2023-09-08T01:08:07;8.85;;;6.35;;
21239;SDS011;10778;48.962;9.018;2023-09-08T01:10:34;8.88;;;5.88;;
21239;SDS011;10778;48.962;9.018;2023-09-08T01:13:00;7.10;;;5.85;;
21239;SDS011;10778;48.962;9.018;2023-09-08T01:15:26;7.03;;;5.93;;
21239;SDS011;10778;48.962;9.018;2023-09-08T01:17:53;8.65;;;6.75;;
21239;SDS011;10778;48.962;9.018;2023-09-08T01:20:24;9.18;;;6.65;;
21239;SDS011;10778;48.962;9.018;2023-09-08T01:26:04;8.10;;;6.00;;
21239;SDS011;10778;48.962;9.018;2023-09-08T01:28:34;10.23;;;6.57;;
21239;SDS011;10778;48.962;9.018;2023-09-08T01:31:05;10.18;;;6.68;;
21239;SDS011;10778;48.962;9.018;2023-09-08T01:33:31;10.05;;;7.13;;
21239;SDS011;10778;48.962;9.018;2023-09-08T01:35:58;9.10;;;6.50;;
21239;SDS011;10778;48.962;9.018;2023-09-08T01:38:25;8.95;;;6.85;;
21239;SDS011;10778;48.962;9.018;2023-09-08T01:40:52;10.75;;;7.15;;
21239;SDS011;10778;48.962;9.018;2023-09-08T01:43:18;9.45;;;6.65;;
21239;SDS011;10778;48.962;9.018;2023-09-08T01:45:44;7.57;;;6.40;;
21239;SDS011;10778;48.962;9.018;2023-09-08T01:48:11;8.65;;;6.88;;
21239;SDS011;10778;48.962;9.018;2023-09-08T01:50:37;9.18;;;6.78;;
21239;SDS011;10778;48.962;9.018;2023-09-08T01:53:03;12.27;;;7.00;;
21239;SDS011;10778;48.962;9.018;2023-09-08T01:55:29;7.70;;;6.30;;
21239;SDS011;10778;48.962;9.018;2023-09-08T01:57:56;8.55;;;6.60;;
21239;SDS011;10778;48.962;9.018;2023-09-08T02:00:22;10.55;;;6.70;;
21239;SDS011;10778;48.962;9.018;2023-09-08T02:02:50;8.90;;;6.60;;
21239;SDS011;10778;48.962;9.018;2023-09-08T02:05:16;8.75;;;6.55;;
21239;SDS011;10778;48.962;9.018;2023-09-08T02:07:42;9.32;;;6.95;;
21239;SDS011;10778;48.962;9.018;2023-09-08T02:10:08;10.65;;;6.35;;
21239;SDS011;10778;48.962;9.018;2023-09-08T02:12:36;7.97;;;6.95;;
21239;SDS011;10778;48.962;9.018;2023-09-08T02:15:03;9.52;;;6.03;;
21239;SDS011;10778;48.962;9.018;2023-09-08T06:54:48;11.35;;;7.90;;
21239;SDS011;10778;48.962;9.018;2023-09-08T06:57:30;11.13;;;8.45;;
21239;SDS011;10778;48.962;9.018;2023-09-08T07:11:19;12.50;;;8.43;;
21239;SDS011;10778;48.962;9.018;2023-09-08T07:17:34;9.95;;;7.95;;
21239;SDS011;10778;48.962;9.018;2023-09-08T07:23:48;9.63;;;7.40;;
21239;SDS011;10778;48.962;9.018;2023-09-08T07:29:04;9.70;;;7.22;;
21239;SDS011;10778;48.962;9.018;2023-09-08T07:31:42;11.38;;;7.72;;
21239;SDS011;10778;48.962;9.018;2023-09-08T07:34:16;9.93;;;7.50;;
21239;SDS011;10778;48.962;9.018;2023-09-08T07:36:53;8.90;;;7.57;;
21239;SDS011;10778;48.962;9.018;2023-09-08T07:39:26;12.38;;;7.35;;
21239;SDS011;10778;48.962;9.018;2023-09-08T07:42:04;9.93;;;7.53;;
21239;SDS011;10778;48.962;9.018;2023-09-08T07:44:37;10.60;;;7.97;;
21239;SDS011;10778;48.962;9.018;2023-09-08T07:47:06;12.30;;;8.25;;
21239;SDS011;10778;48.962;9.018;2023-09-08T07:52:57;11.40;;;7.55;;
21239;SDS011;10778;48.962;9.018;2023-09-08T07:55:24;10.40;;;7.15;;
21239;SDS011;10778;48.962;9.018;2023-09-08T07:57:53;10.52;;;7.93;;
21239;SDS011;10778;48.962;9.018;2023-09-08T08:00:19;11.07;;;7.32;;
21239;SDS011;10778;48.962;9.018;2023-09-08T08:06:33;9.95;;;6.85;;
21239;SDS011;10778;48.962;9.018;2023-09-08T08:11:45;9.13;;;6.85;;
21239;SDS011;10778;48.962;9.018;2023-09-08T08:17:59;8.80;;;6.38;;
21239;SDS011;10778;48.962;9.018;2023-09-08T08:20:25;7.47;;;6.70;;
21239;SDS011;10778;48.962;9.018;2023-09-08T08:22:51;9.18;;;6.60;;
21239;SDS011;10778;48.962;9.018;2023-09-08T08:25:17;9.57;;;6.53;;
21239;SDS011;10778;48.962;9.018;2023-09-08T08:31:31;8.90;;;6.28;;
21239;SDS011;10778;48.962;9.018;2023-09-08T08:33:58;8.30;;;6.78;;
21239;SDS011;10778;48.962;9.018;2023-09-08T08:36:24;8.95;;;6.65;;
21239;SDS011;10778;48.962;9.018;2023-09-08T08:38:51;10.85;;;6.93;;
21239;SDS011;10778;48.962;9.018;2023-09-08T08:44:30;10.30;;;6.32;;
21239;SDS011;10778;48.962;9.018;2023-09-08T08:46:57;9.57;;;6.32;;
21239;SDS011;10778;48.962;9.018;2023-09-08T08:49:23;9.40;;;6.18;;
21239;SDS011;10778;48.962;9.018;2023-09-08T08:51:49;7.72;;;5.90;;
21239;SDS011;10778;48.962;9.018;2023-09-08T08:54:17;9.77;;;6.13;;
21239;SDS011;10778;48.962;9.018;2023-09-08T08:56:43;7.05;;;5.65;;
21239;SDS011;10778;48.962;9.018;2023-09-08T08:59:10;8.45;;;6.22;;
21239;SDS011;10778;48.962;9.018;2023-09-08T09:01:36;8.65;;;5.72;;
21239;SDS011;10778;48.962;9.018;2023-09-08T09:04:05;6.65;;;5.60;;
21239;SDS011;10778;48.962;9.018;2023-09-08T09:06:32;8.63;;;5.97;;
21239;SDS011;10778;48.962;9.018;2023-09-08T09:08:58;8.32;;;6.10;;
21239;SDS011;10778;48.962;9.018;2023-09-08T09:11:27;8.02;;;6.13;;
21239;SDS011;10778;48.962;9.018;2023-09-08T09:13:53;7.15;;;5.70;;
21239;SDS011;10778;48.962;9.018;2023-09-08T09:16:19;9.85;;;6.15;;
21239;SDS011;10778;48.962;9.018;2023-09-08T09:18:53;7.13;;;5.88;;
21239;SDS011;10778;48.962;9.018;2023-09-08T09:21:23;7.53;;;5.80;;
21239;SDS011;10778;48.962;9.018;2023-09-08T09:23:50;9.65;;;6.28;;
21239;SDS011;10778;48.962;9.018;2023-09-08T09:26:23;6.93;;;5.75;;
21239;SDS011;10778;48.962;9.018;2023-09-08T09:28:50;6.65;;;5.90;;
21239;SDS011;10778;48.962;9.018;2023-09-08T09:31:18;7.28;;;6.25;;
21239;SDS011;10778;48.962;9.018;2023-09-08T09:33:44;9.90;;;6.43;;
21239;SDS011;10778;48.962;9.018;2023-09-08T09:36:19;8.13;;;6.18;;
21239;SDS011;10778;48.962;9.018;2023-09-08T09:38:46;6.50;;;5.72;;
21239;SDS011;10778;48.962;9.018;2023-09-08T09:41:13;9.35;;;5.97;;
21239;SDS011;10778;48.962;9.018;2023-09-08T09:43:39;7.95;;;6.10;;
21239;SDS011;10778;48.962;9.018;2023-09-08T09:46:07;9.13;;;6.07;;
21239;SDS011;10778;48.962;9.018;2023-09-08T09:48:34;10.05;;;6.10;;
21239;SDS011;10778;48.962;9.018;2023-09-08T09:51:14;9.27;;;5.85;;
21239;SDS011;10778;48.962;9.018;2023-09-08T09:53:45;11.57;;;6.00;;
21239;SDS011;10778;48.962;9.018;2023-09-08T09:56:13;10.80;;;5.93;;
21239;SDS011;10778;48.962;9.018;2023-09-08T09:58:42;8.57;;;5.63;;
21239;SDS011;10778;48.962;9.018;2023-09-08T10:01:08;7.03;;;5.95;;
21239;SDS011;10778;48.962;9.018;2023-09-08T10:03:40;7.75;;;5.55;;
21239;SDS011;10778;48.962;9.018;2023-09-08T10:06:06;8.18;;;6.30;;
21239;SDS011;10778;48.962;9.018;2023-09-08T10:08:33;6.55;;;5.88;;
21239;SDS011;10778;48.962;9.018;2023-09-08T10:11:05;6.40;;;5.80;;
21239;SDS011;10778;48.962;9.018;2023-09-08T10:13:36;6.47;;;5.60;;
21239;SDS011;10778;48.962;9.018;2023-09-08T10:16:08;6.78;;;6.07;;
21239;SDS011;10778;48.962;9.018;2023-09-08T10:18:39;6.78;;;5.70;;
21239;SDS011;10778;48.962;9.018;2023-09-08T10:22:05;9.18;;;6.35;;
21239;SDS011;10778;48.962;9.018;2023-09-08T10:24:33;7.65;;;6.00;;
21239;SDS011;10778;48.962;9.018;2023-09-08T10:27:09;9.75;;;6.70;;
21239;SDS011;10778;48.962;9.018;2023-09-08T10:29:40;8.80;;;6.40;;
21239;SDS011;10778;48.962;9.018;2023-09-08T10:32:09;8.55;;;6.20;;
21239;SDS011;10778;48.962;9.018;2023-09-08T10:34:37;8.27;;;5.97;;
21239;SDS011;10778;48.962;9.018;2023-09-08T10:37:20;6.72;;;5.68;;
21239;SDS011;10778;48.962;9.018;2023-09-08T10:39:48;7.63;;;5.97;;
21239;SDS011;10778;48.962;9.018;2023-09-08T10:44:44;8.63;;;5.80;;
21239;SDS011;10778;48.962;9.018;2023-09-08T10:47:22;6.75;;;5.80;;
21239;SDS011;10778;48.962;9.018;2023-09-08T10:49:56;7.78;;;5.90;;
21239;SDS011;10778;48.962;9.018;2023-09-08T10:52:24;6.85;;;5.43;;
21239;SDS011;10778;48.962;9.018;2023-09-08T10:54:53;8.85;;;5.60;;
21239;SDS011;10778;48.962;9.018;2023-09-08T10:57:22;7.10;;;5.80;;
21239;SDS011;10778;48.962;9.018;2023-09-08T10:59:56;7.43;;;5.57;;
21239;SDS011;10778;48.962;9.018;2023-09-08T11:02:36;7.85;;;5.38;;
21239;SDS011;10778;48.962;9.018;2023-09-08T11:05:02;8.55;;;5.53;;
21239;SDS011;10778;48.962;9.018;2023-09-08T11:07:31;8.48;;;5.95;;
21239;SDS011;10778;48.962;9.018;2023-09-08T11:10:03;6.78;;;5.70;;
21239;SDS011;10778;48.962;9.018;2023-09-08T11:12:33;7.03;;;5.97;;
21239;SDS011;10778;48.962;9.018;2023-09-08T11:15:07;6.95;;;5.82;;
21239;SDS011;10778;48.962;9.018;2023-09-08T11:17:34;6.85;;;5.72;;
21239;SDS011;10778;48.962;9.018;2023-09-08T11:20:05;5.70;;;5.20;;
21239;SDS011;10778;48.962;9.018;2023-09-08T11:22:36;6.55;;;5.63;;
21239;SDS011;10778;48.962;9.018;2023-09-08T11:25:03;6.32;;;5.72;;
21239;SDS011;10778;48.962;9.018;2023-09-08T11:27:32;6.40;;;5.45;;
21239;SDS011;10778;48.962;9.018;2023-09-08T11:29:58;7.65;;;5.68;;
21239;SDS011;10778;48.962;9.018;2023-09-08T11:32:25;6.68;;;5.93;;
21239;SDS011;10778;48.962;9.018;2023-09-08T11:35:07;9.40;;;6.22;;
21239;SDS011;10778;48.962;9.018;2023-09-08T11:37:39;8.00;;;6.40;;
21239;SDS011;10778;48.962;9.018;2023-09-08T11:40:07;7.40;;;5.93;;
21239;SDS011;10778;48.962;9.018;2023-09-08T11:42:41;7.53;;;5.88;;
21239;SDS011;10778;48.962;9.018;2023-09-08T11:45:11;7.30;;;6.03;;
21239;SDS011;10778;48.962;9.018;2023-09-08T11:47:46;7.30;;;5.78;;
21239;SDS011;10778;48.962;9.018;2023-09-08T11:50:15;6.32;;;5.50;;
21239;SDS011;10778;48.962;9.018;2023-09-08T11:52:46;7.22;;;5.90;;
21239;SDS011;10778;48.962;9.018;2023-09-08T11:55:21;10.40;;;5.47;;
21239;SDS011;10778;48.962;9.018;2023-09-08T11:57:49;8.90;;;5.85;;
21239;SDS011;10778;48.962;9.018;2023-09-08T12:00:20;6.40;;;5.63;;
21239;SDS011;10778;48.962;9.018;2023-09-08T12:02:48;7.38;;;5.65;;
21239;SDS011;10778;48.962;9.018;2023-09-08T12:05:23;6.43;;;5.47;;
21239;SDS011;10778;48.962;9.018;2023-09-08T12:07:50;6.45;;;5.55;;
21239;SDS011;10778;48.962;9.018;2023-09-08T12:10:18;6.40;;;5.70;;
21239;SDS011;10778;48.962;9.018;2023-09-08T12:12:45;7.60;;;5.70;;
21239;SDS011;10778;48.962;9.018;2023-09-08T12:15:28;6.03;;;5.43;;
21239;SDS011;10778;48.962;9.018;2023-09-08T12:17:58;6.20;;;5.10;;
21239;SDS011;10778;48.962;9.018;2023-09-08T12:20:29;6.18;;;5.53;;
21239;SDS011;10778;48.962;9.018;2023-09-08T12:23:00;7.15;;;5.68;;
21239;SDS011;10778;48.962;9.018;2023-09-08T12:25:28;6.07;;;5.35;;
21239;SDS011;10778;48.962;9.018;2023-09-08T12:27:57;7.40;;;5.32;;
21239;SDS011;10778;48.962;9.018;2023-09-08T12:30:23;8.95;;;5.60;;
21239;SDS011;10778;48.962;9.018;2023-09-08T12:32:58;6.22;;;5.60;;
21239;SDS011;10778;48.962;9.018;2023-09-08T12:35:26;7.78;;;5.85;;
21239;SDS011;10778;48.962;9.018;2023-09-08T12:37:56;5.60;;;5.03;;
21239;SDS011;10778;48.962;9.018;2023-09-08T12:40:25;5.82;;;5.15;;
21239;SDS011;10778;48.962;9.018;2023-09-08T12:42:54;6.35;;;5.63;;
21239;SDS011;10778;48.962;9.018;2023-09-08T12:45:22;5.68;;;5.07;;
21239;SDS011;10778;48.962;9.018;2023-09-08T12:47:49;5.90;;;5.30;;
21239;SDS011;10778;48.962;9.018;2023-09-08T12:50:15;7.20;;;5.18;;
21239;SDS011;10778;48.962;9.018;2023-09-08T12:52:41;5.78;;;4.82;;
21239;SDS011;10778;48.962;9.018;2023-09-08T12:55:07;9.82;;;5.07;;
21239;SDS011;10778;48.962;9.018;2023-09-08T12:57:34;7.90;;;5.57;;
21239;SDS011;10778;48.962;9.018;2023-09-08T13:00:01;7.07;;;5.35;;
21239;SDS011;10778;48.962;9.018;2023-09-08T13:02:27;5.80;;;4.75;;
21239;SDS011;10778;48.962;9.018;2023-09-08T13:04:53;5.00;;;4.53;;
21239;SDS011;10778;48.962;9.018;2023-09-08T13:07:20;6.35;;;5.15;;
21239;SDS011;10778;48.962;9.018;2023-09-08T13:09:46;6.35;;;5.20;;
21239;SDS011;10778;48.962;9.018;2023-09-08T13:12:12;7.07;;;5.22;;
21239;SDS011;10778;48.962;9.018;2023-09-08T13:14:39;6.82;;;5.07;;
21239;SDS011;10778;48.962;9.018;2023-09-08T13:17:06;5.93;;;5.00;;
21239;SDS011;10778;48.962;9.018;2023-09-08T13:19:32;6.57;;;5.20;;
21239;SDS011;10778;48.962;9.018;2023-09-08T13:21:58;5.85;;;5.22;;
21239;SDS011;10778;48.962;9.018;2023-09-08T13:24:24;6.13;;;5.07;;
21239;SDS011;10778;48.962;9.018;2023-09-08T13:26:50;5.35;;;4.85;;
21239;SDS011;10778;48.962;9.018;2023-09-08T13:29:16;6.88;;;5.00;;
21239;SDS011;10778;48.962;9.018;2023-09-08T13:31:44;7.97;;;4.70;;
21239;SDS011;10778;48.962;9.018;2023-09-08T13:34:10;7.25;;;5.40;;
21239;SDS011;10778;48.962;9.018;2023-09-08T13:36:36;5.40;;;4.90;;
21239;SDS011;10778;48.962;9.018;2023-09-08T13:39:02;5.55;;;5.05;;
21239;SDS011;10778;48.962;9.018;2023-09-08T13:44:22;6.93;;;4.80;;
21239;SDS011;10778;48.962;9.018;2023-09-08T13:46:49;5.47;;;4.97;;
21239;SDS011;10778;48.962;9.018;2023-09-08T13:49:16;5.28;;;4.78;;
21239;SDS011;10778;48.962;9.018;2023-09-08T13:51:42;6.40;;;5.03;;
21239;SDS011;10778;48.962;9.018;2023-09-08T13:54:10;5.13;;;4.70;;
21239;SDS011;10778;48.962;9.018;2023-09-08T13:56:40;5.22;;;4.72;;
21239;SDS011;10778;48.962;9.018;2023-09-08T13:59:07;6.38;;;4.80;;
21239;SDS011;10778;48.962;9.018;2023-09-08T14:01:35;7.63;;;5.05;;
21239;SDS011;10778;48.962;9.018;2023-09-08T14:04:02;5.15;;;4.65;;
21239;SDS011;10778;48.962;9.018;2023-09-08T14:06:29;6.32;;;4.85;;
21239;SDS011;10778;48.962;9.018;2023-09-08T14:08:55;5.93;;;5.07;;
21239;SDS011;10778;48.962;9.018;2023-09-08T14:11:21;5.68;;;4.90;;
21239;SDS011;10778;48.962;9.018;2023-09-08T14:13:48;7.65;;;5.13;;
21239;SDS011;10778;48.962;9.018;2023-09-08T14:16:14;7.28;;;4.47;;
21239;SDS011;10778;48.962;9.018;2023-09-08T14:18:41;7.28;;;5.07;;
21239;SDS011;10778;48.962;9.018;2023-09-08T14:21:07;6.60;;;4.75;;
21239;SDS011;10778;48.962;9.018;2023-09-08T14:23:34;7.85;;;4.82;;
21239;SDS011;10778;48.962;9.018;2023-09-08T14:26:00;7.28;;;4.90;;
21239;SDS011;10778;48.962;9.018;2023-09-08T14:28:26;5.78;;;5.20;;
21239;SDS011;10778;48.962;9.018;2023-09-08T14:30:52;6.43;;;5.03;;
21239;SDS011;10778;48.962;9.018;2023-09-08T14:33:19;5.75;;;4.90;;
21239;SDS011;10778;48.962;9.018;2023-09-08T14:35:45;5.70;;;5.10;;
21239;SDS011;10778;48.962;9.018;2023-09-08T14:38:20;5.30;;;4.80;;
21239;SDS011;10778;48.962;9.018;2023-09-08T14:40:56;7.22;;;4.78;;
21239;SDS011;10778;48.962;9.018;2023-09-08T14:43:23;5.50;;;4.70;;
21239;SDS011;10778;48.962;9.018;2023-09-08T14:45:50;5.45;;;4.95;;
21239;SDS011;10778;48.962;9.018;2023-09-08T14:48:17;6.35;;;4.63;;
21239;SDS011;10778;48.962;9.018;2023-09-08T14:50:44;5.75;;;4.95;;
21239;SDS011;10778;48.962;9.018;2023-09-08T14:53:10;6.50;;;4.97;;
21239;SDS011;10778;48.962;9.018;2023-09-08T14:55:36;6.70;;;4.85;;
21239;SDS011;10778;48.962;9.018;2023-09-08T14:58:02;5.38;;;4.88;;
21239;SDS011;10778;48.962;9.018;2023-09-08T15:00:29;5.50;;;5.00;;
21239;SDS011;10778;48.962;9.018;2023-09-08T15:02:55;6.65;;;5.30;;
21239;SDS011;10778;48.962;9.018;2023-09-08T15:05:21;6.28;;;5.18;;
21239;SDS011;10778;48.962;9.018;2023-09-08T15:07:47;5.57;;;4.85;;
21239;SDS011;10778;48.962;9.018;2023-09-08T15:10:13;6.18;;;4.93;;
21239;SDS011;10778;48.962;9.018;2023-09-08T15:12:39;5.38;;;4.75;;
21239;SDS011;10778;48.962;9.018;2023-09-08T15:15:05;7.22;;;4.63;;
21239;SDS011;10778;48.962;9.018;2023-09-08T15:17:32;7.00;;;5.10;;
21239;SDS011;10778;48.962;9.018;2023-09-08T15:19:59;4.95;;;4.55;;
21239;SDS011;10778;48.962;9.018;2023-09-08T15:22:25;5.50;;;5.00;;
21239;SDS011;10778;48.962;9.018;2023-09-08T15:24:52;8.38;;;5.18;;
21239;SDS011;10778;48.962;9.018;2023-09-08T15:27:18;5.55;;;5.03;;
21239;SDS011;10778;48.962;9.018;2023-09-08T15:29:44;6.30;;;5.18;;
21239;SDS011;10778;48.962;9.018;2023-09-08T15:32:10;7.32;;;4.80;;
21239;SDS011;10778;48.962;9.018;2023-09-08T15:34:36;5.68;;;4.80;;
21239;SDS011;10778;48.962;9.018;2023-09-08T15:37:02;6.63;;;5.03;;
21239;SDS011;10778;48.962;9.018;2023-09-08T15:39:28;7.85;;;5.30;;
21239;SDS011;10778;48.962;9.018;2023-09-08T15:41:54;6.10;;;4.75;;
21239;SDS011;10778;48.962;9.018;2023-09-08T15:44:20;7.60;;;5.00;;
21239;SDS011;10778;48.962;9.018;2023-09-08T15:46:47;5.85;;;5.25;;
21239;SDS011;10778;48.962;9.018;2023-09-08T15:49:13;6.32;;;5.00;;
21239;SDS011;10778;48.962;9.018;2023-09-08T15:51:39;6.70;;;5.20;;
21239;SDS011;10778;48.962;9.018;2023-09-08T15:54:06;5.40;;;4.90;;
21239;SDS011;10778;48.962;9.018;2023-09-08T15:56:32;7.22;;;4.75;;
21239;SDS011;10778;48.962;9.018;2023-09-08T15:58:58;5.97;;;5.15;;
21239;SDS011;10778;48.962;9.018;2023-09-08T16:01:24;6.95;;;4.90;;
21239;SDS011;10778;48.962;9.018;2023-09-08T16:03:50;5.90;;;5.30;;
21239;SDS011;10778;48.962;9.018;2023-09-08T16:06:16;5.85;;;4.65;;
21239;SDS011;10778;48.962;9.018;2023-09-08T16:08:44;6.25;;;4.97;;
21239;SDS011;10778;48.962;9.018;2023-09-08T16:11:10;9.43;;;5.13;;
21239;SDS011;10778;48.962;9.018;2023-09-08T16:13:36;7.05;;;5.00;;
21239;SDS011;10778;48.962;9.018;2023-09-08T16:16:02;6.72;;;5.25;;
21239;SDS011;10778;48.962;9.018;2023-09-08T16:18:30;5.68;;;5.07;;
21239;SDS011;10778;48.962;9.018;2023-09-08T16:20:56;5.38;;;4.88;;
21239;SDS011;10778;48.962;9.018;2023-09-08T16:23:22;6.97;;;4.75;;
21239;SDS011;10778;48.962;9.018;2023-09-08T16:25:48;5.82;;;5.18;;
21239;SDS011;10778;48.962;9.018;2023-09-08T16:28:16;6.55;;;4.80;;
21239;SDS011;10778;48.962;9.018;2023-09-08T16:30:42;11.30;;;6.68;;
21239;SDS011;10778;48.962;9.018;2023-09-08T16:33:08;7.53;;;5.18;;
21239;SDS011;10778;48.962;9.018;2023-09-08T16:35:35;5.93;;;5.32;;
21239;SDS011;10778;48.962;9.018;2023-09-08T16:38:01;5.55;;;4.90;;
21239;SDS011;10778;48.962;9.018;2023-09-08T16:40:28;5.40;;;4.78;;
21239;SDS011;10778;48.962;9.018;2023-09-08T16:42:54;5.93;;;4.70;;
21239;SDS011;10778;48.962;9.018;2023-09-08T16:45:21;6.18;;;4.70;;
21239;SDS011;10778;48.962;9.018;2023-09-08T16:47:47;6.10;;;5.15;;
21239;SDS011;10778;48.962;9.018;2023-09-08T16:50:13;5.35;;;4.85;;
21239;SDS011;10778;48.962;9.018;2023-09-08T16:52:39;5.93;;;5.10;;
21239;SDS011;10778;48.962;9.018;2023-09-08T16:55:06;6.88;;;4.93;;
21239;SDS011;10778;48.962;9.018;2023-09-08T16:57:37;5.60;;;4.85;;
21239;SDS011;10778;48.962;9.018;2023-09-08T17:00:04;7.65;;;5.13;;
21239;SDS011;10778;48.962;9.018;2023-09-08T17:02:31;6.93;;;4.93;;
21239;SDS011;10778;48.962;9.018;2023-09-08T17:04:57;6.78;;;5.10;;
21239;SDS011;10778;48.962;9.018;2023-09-08T17:07:23;6.47;;;4.90;;
21239;SDS011;10778;48.962;9.018;2023-09-08T17:09:49;6.70;;;5.00;;
21239;SDS011;10778;48.962;9.018;2023-09-08T17:12:15;5.63;;;4.78;;
21239;SDS011;10778;48.962;9.018;2023-09-08T17:14:41;5.75;;;5.25;;
21239;SDS011;10778;48.962;9.018;2023-09-08T17:17:07;6.10;;;4.93;;
21239;SDS011;10778;48.962;9.018;2023-09-08T17:19:33;6.70;;;5.05;;
21239;SDS011;10778;48.962;9.018;2023-09-08T17:22:00;5.75;;;5.15;;
21239;SDS011;10778;48.962;9.018;2023-09-08T17:24:26;7.30;;;5.25;;
21239;SDS011;10778;48.962;9.018;2023-09-08T17:26:56;8.25;;;5.50;;
21239;SDS011;10778;48.962;9.018;2023-09-08T17:29:22;5.50;;;5.00;;
21239;SDS011;10778;48.962;9.018;2023-09-08T17:31:48;7.18;;;5.70;;
21239;SDS011;10778;48.962;9.018;2023-09-08T17:34:18;7.78;;;5.40;;
21239;SDS011;10778;48.962;9.018;2023-09-08T17:36:46;7.68;;;5.50;;
21239;SDS011;10778;48.962;9.018;2023-09-08T17:39:13;6.57;;;5.93;;
21239;SDS011;10778;48.962;9.018;2023-09-08T17:41:40;6.57;;;5.57;;
21239;SDS011;10778;48.962;9.018;2023-09-08T17:44:07;7.20;;;5.40;;
21239;SDS011;10778;48.962;9.018;2023-09-08T17:46:33;6.60;;;5.28;;
21239;SDS011;10778;48.962;9.018;2023-09-08T17:49:00;8.23;;;5.13;;
21239;SDS011;10778;48.962;9.018;2023-09-08T17:51:27;7.32;;;5.50;;
21239;SDS011;10778;48.962;9.018;2023-09-08T17:53:53;7.32;;;5.70;;
21239;SDS011;10778;48.962;9.018;2023-09-08T17:56:19;5.88;;;5.20;;
21239;SDS011;10778;48.962;9.018;2023-09-08T17:58:45;7.97;;;5.78;;
21239;SDS011;10778;48.962;9.018;2023-09-08T18:01:11;9.95;;;5.90;;
21239;SDS011;10778;48.962;9.018;2023-09-08T18:03:38;7.78;;;5.80;;
21239;SDS011;10778;48.962;9.018;2023-09-08T18:06:04;7.60;;;5.85;;
21239;SDS011;10778;48.962;9.018;2023-09-08T18:08:33;11.52;;;6.38;;
21239;SDS011;10778;48.962;9.018;2023-09-08T18:10:59;8.70;;;6.18;;
21239;SDS011;10778;48.962;9.018;2023-09-08T18:13:26;8.25;;;6.30;;
21239;SDS011;10778;48.962;9.018;2023-09-08T18:15:58;13.40;;;6.63;;
21239;SDS011;10778;48.962;9.018;2023-09-08T18:18:25;13.07;;;6.35;;
21239;SDS011;10778;48.962;9.018;2023-09-08T18:20:54;6.63;;;5.72;;
21239;SDS011;10778;48.962;9.018;2023-09-08T18:23:21;8.25;;;6.00;;
21239;SDS011;10778;48.962;9.018;2023-09-08T18:25:47;7.25;;;6.28;;
21239;SDS011;10778;48.962;9.018;2023-09-08T18:28:13;8.00;;;6.10;;
21239;SDS011;10778;48.962;9.018;2023-09-08T18:30:44;7.35;;;5.90;;
21239;SDS011;10778;48.962;9.018;2023-09-08T18:33:10;7.05;;;6.18;;
21239;SDS011;10778;48.962;9.018;2023-09-08T18:35:36;8.55;;;6.18;;
21239;SDS011;10778;48.962;9.018;2023-09-08T18:38:05;8.10;;;6.22;;
21239;SDS011;10778;48.962;9.018;2023-09-08T18:40:32;10.15;;;6.60;;
21239;SDS011;10778;48.962;9.018;2023-09-08T18:42:58;7.35;;;5.70;;
21239;SDS011;10778;48.962;9.018;2023-09-08T18:45:24;8.55;;;5.97;;
21239;SDS011;10778;48.962;9.018;2023-09-08T18:47:50;7.80;;;6.00;;
21239;SDS011;10778;48.962;9.018;2023-09-08T18:50:16;6.45;;;5.75;;
21239;SDS011;10778;48.962;9.018;2023-09-08T18:52:42;7.50;;;6.13;;
21239;SDS011;10778;48.962;9.018;2023-09-08T18:55:09;8.57;;;6.20;;
21239;SDS011;10778;48.962;9.018;2023-09-08T18:57:35;9.05;;;6.30;;
21239;SDS011;10778;48.962;9.018;2023-09-08T19:00:01;7.47;;;6.00;;
21239;SDS011;10778;48.962;9.018;2023-09-08T19:02:29;8.65;;;6.47;;
21239;SDS011;10778;48.962;9.018;2023-09-08T19:04:55;9.85;;;6.30;;
21239;SDS011;10778;48.962;9.018;2023-09-08T19:07:21;9.13;;;6.32;;
21239;SDS011;10778;48.962;9.018;2023-09-08T19:09:47;7.53;;;6.60;;
21239;SDS011;10778;48.962;9.018;2023-09-08T19:12:14;7.82;;;6.72;;
21239;SDS011;10778;48.962;9.018;2023-09-08T19:14:40;6.60;;;6.00;;
21239;SDS011;10778;48.962;9.018;2023-09-08T19:17:06;9.65;;;6.60;;
21239;SDS011;10778;48.962;9.018;2023-09-08T19:19:32;8.43;;;6.22;;
21239;SDS011;10778;48.962;9.018;2023-09-08T19:22:01;9.38;;;6.50;;
21239;SDS011;10778;48.962;9.018;2023-09-08T19:27:18;10.80;;;6.55;;
21239;SDS011;10778;48.962;9.018;2023-09-08T19:29:48;10.10;;;5.93;;
21239;SDS011;10778;48.962;9.018;2023-09-08T19:32:15;12.30;;;6.47;;
21239;SDS011;10778;48.962;9.018;2023-09-08T19:34:41;8.65;;;6.43;;
21239;SDS011;10778;48.962;9.018;2023-09-08T19:37:07;9.80;;;6.40;;
21239;SDS011;10778;48.962;9.018;2023-09-08T19:39:33;8.70;;;6.90;;
21239;SDS011;10778;48.962;9.018;2023-09-08T19:41:59;7.85;;;6.22;;
21239;SDS011;10778;48.962;9.018;2023-09-08T19:44:25;8.40;;;6.80;;
21239;SDS011;10778;48.962;9.018;2023-09-08T19:46:52;9.95;;;6.22;;
21239;SDS011;10778;48.962;9.018;2023-09-08T19:49:18;8.45;;;6.47;;
21239;SDS011;10778;48.962;9.018;2023-09-08T19:51:44;10.80;;;6.68;;
21239;SDS011;10778;48.962;9.018;2023-09-08T19:54:10;8.50;;;6.05;;
21239;SDS011;10778;48.962;9.018;2023-09-08T19:56:36;7.30;;;6.32;;
21239;SDS011;10778;48.962;9.018;2023-09-08T19:59:02;7.63;;;6.63;;
21239;SDS011;10778;48.962;9.018;2023-09-08T20:01:28;7.18;;;6.47;;
21239;SDS011;10778;48.962;9.018;2023-09-08T20:03:54;8.35;;;6.55;;
21239;SDS011;10778;48.962;9.018;2023-09-08T20:06:20;6.93;;;6.07;;
21239;SDS011;10778;48.962;9.018;2023-09-08T20:08:46;7.18;;;6.32;;
21239;SDS011;10778;48.962;9.018;2023-09-08T20:11:12;9.85;;;6.68;;
21239;SDS011;10778;48.962;9.018;2023-09-08T20:13:39;12.30;;;6.55;;
21239;SDS011;10778;48.962;9.018;2023-09-08T20:16:06;8.43;;;6.63;;
21239;SDS011;10778;48.962;9.018;2023-09-08T20:18:35;9.65;;;6.93;;
21239;SDS011;10778;48.962;9.018;2023-09-08T20:21:03;9.30;;;6.18;;